sensor_id;sensor_type;location;lat;lon;timestamp;temperature;humidity
42227;DHT22;27892;52.378;13.122;2023-07-31T00:00:25;20.40;65.90
42227;DHT22;27892;52.378;13.122;2023-07-31T00:02:52;20.40;65.90
42227;DHT22;27892;52.378;13.122;2023-07-31T00:05:17;20.30;65.90
42227;DHT22;27892;52.378;13.122;2023-07-31T00:07:43;20.40;65.80
42227;DHT22;27892;52.378;13.122;2023-07-31T00:10:09;20.30;65.40
42227;DHT22;27892;52.378;13.122;2023-07-31T00:12:35;20.30;66.10
42227;DHT22;27892;52.378;13.122;2023-07-31T00:15:01;20.30;66.10
42227;DHT22;27892;52.378;13.122;2023-07-31T00:17:28;20.20;66.20
42227;DHT22;27892;52.378;13.122;2023-07-31T00:19:53;20.20;66.50
42227;DHT22;27892;52.378;13.122;2023-07-31T00:22:19;20.10;66.50
42227;DHT22;27892;52.378;13.122;2023-07-31T00:24:45;20.10;66.70
42227;DHT22;27892;52.378;13.122;2023-07-31T00:27:11;20.20;66.40
42227;DHT22;27892;52.378;13.122;2023-07-31T00:29:36;20.20;66.30
42227;DHT22;27892;52.378;13.122;2023-07-31T00:32:02;20.20;66.30
42227;DHT22;27892;52.378;13.122;2023-07-31T00:34:28;20.30;66.40
42227;DHT22;27892;52.378;13.122;2023-07-31T00:36:53;20.30;65.90
42227;DHT22;27892;52.378;13.122;2023-07-31T00:39:19;20.30;65.60
42227;DHT22;27892;52.378;13.122;2023-07-31T00:41:44;20.20;65.60
42227;DHT22;27892;52.378;13.122;2023-07-31T00:44:10;20.10;65.90
42227;DHT22;27892;52.378;13.122;2023-07-31T00:46:36;20.00;66.60
42227;DHT22;27892;52.378;13.122;2023-07-31T00:49:02;20.00;67.20
42227;DHT22;27892;52.378;13.122;2023-07-31T00:51:28;19.90;68.30
42227;DHT22;27892;52.378;13.122;2023-07-31T00:53:54;19.90;68.10
42227;DHT22;27892;52.378;13.122;2023-07-31T00:56:21;19.80;68.40
42227;DHT22;27892;52.378;13.122;2023-07-31T00:58:48;19.80;68.50
42227;DHT22;27892;52.378;13.122;2023-07-31T01:01:13;19.80;68.80
42227;DHT22;27892;52.378;13.122;2023-07-31T01:03:39;19.90;68.70
42227;DHT22;27892;52.378;13.122;2023-07-31T01:06:15;19.90;68.80
42227;DHT22;27892;52.378;13.122;2023-07-31T01:11:27;19.80;69.20
42227;DHT22;27892;52.378;13.122;2023-07-31T01:13:54;19.80;69.30
42227;DHT22;27892;52.378;13.122;2023-07-31T01:16:20;19.80;69.10
42227;DHT22;27892;52.378;13.122;2023-07-31T01:18:46;19.90;69.30
42227;DHT22;27892;52.378;13.122;2023-07-31T01:24:33;20.00;70.20
42227;DHT22;27892;52.378;13.122;2023-07-31T01:27:14;19.90;69.50
42227;DHT22;27892;52.378;13.122;2023-07-31T01:32:25;20.00;70.50
42227;DHT22;27892;52.378;13.122;2023-07-31T01:34:52;20.00;70.40
42227;DHT22;27892;52.378;13.122;2023-07-31T01:37:18;20.00;70.40
42227;DHT22;27892;52.378;13.122;2023-07-31T01:39:43;20.10;70.80
42227;DHT22;27892;52.378;13.122;2023-07-31T01:42:09;20.10;70.60
42227;DHT22;27892;52.378;13.122;2023-07-31T01:44:35;20.00;70.80
42227;DHT22;27892;52.378;13.122;2023-07-31T01:47:00;20.10;71.30
42227;DHT22;27892;52.378;13.122;2023-07-31T01:49:26;20.00;71.50
42227;DHT22;27892;52.378;13.122;2023-07-31T01:51:52;20.10;71.70
42227;DHT22;27892;52.378;13.122;2023-07-31T01:54:18;20.10;72.10
42227;DHT22;27892;52.378;13.122;2023-07-31T01:56:43;20.10;72.00
42227;DHT22;27892;52.378;13.122;2023-07-31T01:59:09;20.00;71.90
42227;DHT22;27892;52.378;13.122;2023-07-31T02:01:35;19.90;71.80
42227;DHT22;27892;52.378;13.122;2023-07-31T02:04:00;19.80;72.40
42227;DHT22;27892;52.378;13.122;2023-07-31T02:06:27;19.80;72.80
42227;DHT22;27892;52.378;13.122;2023-07-31T02:08:52;19.90;72.70
42227;DHT22;27892;52.378;13.122;2023-07-31T02:11:18;20.00;72.90
42227;DHT22;27892;52.378;13.122;2023-07-31T02:13:44;20.00;73.00
42227;DHT22;27892;52.378;13.122;2023-07-31T02:16:10;20.00;72.10
42227;DHT22;27892;52.378;13.122;2023-07-31T02:18:35;20.00;72.70
42227;DHT22;27892;52.378;13.122;2023-07-31T02:21:01;20.00;72.00
42227;DHT22;27892;52.378;13.122;2023-07-31T02:23:27;19.90;71.60
42227;DHT22;27892;52.378;13.122;2023-07-31T02:25:52;19.90;71.90
42227;DHT22;27892;52.378;13.122;2023-07-31T02:28:18;19.90;71.90
42227;DHT22;27892;52.378;13.122;2023-07-31T02:30:44;19.80;71.30
42227;DHT22;27892;52.378;13.122;2023-07-31T02:33:11;19.80;71.60
42227;DHT22;27892;52.378;13.122;2023-07-31T02:35:37;19.80;71.40
42227;DHT22;27892;52.378;13.122;2023-07-31T02:38:02;19.70;71.60
42227;DHT22;27892;52.378;13.122;2023-07-31T02:40:28;19.60;72.20
42227;DHT22;27892;52.378;13.122;2023-07-31T02:42:54;19.60;72.80
42227;DHT22;27892;52.378;13.122;2023-07-31T02:45:19;19.60;72.20
42227;DHT22;27892;52.378;13.122;2023-07-31T02:48:04;19.70;72.00
42227;DHT22;27892;52.378;13.122;2023-07-31T02:50:48;19.60;72.40
42227;DHT22;27892;52.378;13.122;2023-07-31T02:53:32;19.60;72.90
42227;DHT22;27892;52.378;13.122;2023-07-31T02:56:16;19.60;72.90
42227;DHT22;27892;52.378;13.122;2023-07-31T02:59:00;19.70;73.00
42227;DHT22;27892;52.378;13.122;2023-07-31T03:01:45;19.70;73.20
42227;DHT22;27892;52.378;13.122;2023-07-31T03:04:29;19.60;73.20
42227;DHT22;27892;52.378;13.122;2023-07-31T03:07:13;19.60;73.20
42227;DHT22;27892;52.378;13.122;2023-07-31T03:09:57;19.60;73.40
42227;DHT22;27892;52.378;13.122;2023-07-31T03:12:41;19.50;73.80
42227;DHT22;27892;52.378;13.122;2023-07-31T03:15:25;19.50;74.40
42227;DHT22;27892;52.378;13.122;2023-07-31T03:18:09;19.60;74.70
42227;DHT22;27892;52.378;13.122;2023-07-31T03:20:54;19.70;74.80
42227;DHT22;27892;52.378;13.122;2023-07-31T03:23:38;19.70;73.90
42227;DHT22;27892;52.378;13.122;2023-07-31T03:26:22;19.70;74.20
42227;DHT22;27892;52.378;13.122;2023-07-31T03:29:08;19.70;74.20
42227;DHT22;27892;52.378;13.122;2023-07-31T03:31:52;19.70;74.60
42227;DHT22;27892;52.378;13.122;2023-07-31T03:34:36;19.70;74.80
42227;DHT22;27892;52.378;13.122;2023-07-31T03:37:21;19.70;74.70
42227;DHT22;27892;52.378;13.122;2023-07-31T03:40:06;19.70;74.50
42227;DHT22;27892;52.378;13.122;2023-07-31T03:42:50;19.70;74.60
42227;DHT22;27892;52.378;13.122;2023-07-31T03:45:34;19.70;74.90
42227;DHT22;27892;52.378;13.122;2023-07-31T03:48:18;19.70;75.30
42227;DHT22;27892;52.378;13.122;2023-07-31T03:51:03;19.70;75.20
42227;DHT22;27892;52.378;13.122;2023-07-31T03:53:47;19.80;75.50
42227;DHT22;27892;52.378;13.122;2023-07-31T03:56:31;19.80;75.50
42227;DHT22;27892;52.378;13.122;2023-07-31T03:59:15;19.90;75.20
42227;DHT22;27892;52.378;13.122;2023-07-31T04:01:59;19.90;74.60
42227;DHT22;27892;52.378;13.122;2023-07-31T04:04:43;19.90;74.80
42227;DHT22;27892;52.378;13.122;2023-07-31T04:07:27;19.90;74.90
42227;DHT22;27892;52.378;13.122;2023-07-31T04:10:11;19.90;75.20
42227;DHT22;27892;52.378;13.122;2023-07-31T04:12:55;19.90;75.30
42227;DHT22;27892;52.378;13.122;2023-07-31T04:15:39;20.00;75.30
42227;DHT22;27892;52.378;13.122;2023-07-31T04:18:25;20.00;75.10
42227;DHT22;27892;52.378;13.122;2023-07-31T04:21:09;19.90;75.00
42227;DHT22;27892;52.378;13.122;2023-07-31T04:23:54;19.90;75.20
42227;DHT22;27892;52.378;13.122;2023-07-31T04:26:40;20.00;74.50
42227;DHT22;27892;52.378;13.122;2023-07-31T04:29:24;19.90;74.80
42227;DHT22;27892;52.378;13.122;2023-07-31T04:32:08;19.90;75.20
42227;DHT22;27892;52.378;13.122;2023-07-31T04:34:52;19.80;75.70
42227;DHT22;27892;52.378;13.122;2023-07-31T04:37:36;19.80;76.30
42227;DHT22;27892;52.378;13.122;2023-07-31T04:40:22;19.80;76.20
42227;DHT22;27892;52.378;13.122;2023-07-31T04:43:07;19.90;76.10
42227;DHT22;27892;52.378;13.122;2023-07-31T04:45:51;19.90;75.70
42227;DHT22;27892;52.378;13.122;2023-07-31T04:48:37;19.80;75.80
42227;DHT22;27892;52.378;13.122;2023-07-31T04:51:22;19.80;76.30
42227;DHT22;27892;52.378;13.122;2023-07-31T04:54:07;19.80;76.60
42227;DHT22;27892;52.378;13.122;2023-07-31T04:56:51;19.90;76.20
42227;DHT22;27892;52.378;13.122;2023-07-31T04:59:36;20.00;76.30
42227;DHT22;27892;52.378;13.122;2023-07-31T05:02:21;20.00;76.50
42227;DHT22;27892;52.378;13.122;2023-07-31T05:05:05;20.10;76.10
42227;DHT22;27892;52.378;13.122;2023-07-31T05:07:50;20.00;74.60
42227;DHT22;27892;52.378;13.122;2023-07-31T05:10:34;20.10;75.30
42227;DHT22;27892;52.378;13.122;2023-07-31T05:13:18;20.00;75.70
42227;DHT22;27892;52.378;13.122;2023-07-31T05:16:02;20.10;76.20
42227;DHT22;27892;52.378;13.122;2023-07-31T05:18:46;20.20;76.00
42227;DHT22;27892;52.378;13.122;2023-07-31T05:21:31;20.20;75.90
42227;DHT22;27892;52.378;13.122;2023-07-31T05:24:15;20.20;75.60
42227;DHT22;27892;52.378;13.122;2023-07-31T05:26:59;20.20;75.30
42227;DHT22;27892;52.378;13.122;2023-07-31T05:29:44;20.30;75.70
42227;DHT22;27892;52.378;13.122;2023-07-31T05:32:29;20.40;75.30
42227;DHT22;27892;52.378;13.122;2023-07-31T05:35:13;20.40;75.00
42227;DHT22;27892;52.378;13.122;2023-07-31T05:37:57;20.50;75.10
42227;DHT22;27892;52.378;13.122;2023-07-31T05:40:42;20.50;75.50
42227;DHT22;27892;52.378;13.122;2023-07-31T05:43:27;20.50;74.30
42227;DHT22;27892;52.378;13.122;2023-07-31T05:46:11;20.50;74.90
42227;DHT22;27892;52.378;13.122;2023-07-31T05:48:56;20.50;75.40
42227;DHT22;27892;52.378;13.122;2023-07-31T05:51:40;20.60;76.20
42227;DHT22;27892;52.378;13.122;2023-07-31T05:54:25;20.70;76.00
42227;DHT22;27892;52.378;13.122;2023-07-31T05:57:09;20.70;75.00
42227;DHT22;27892;52.378;13.122;2023-07-31T05:59:53;20.80;75.10
42227;DHT22;27892;52.378;13.122;2023-07-31T06:02:37;20.80;75.10
42227;DHT22;27892;52.378;13.122;2023-07-31T06:05:22;20.80;74.80
42227;DHT22;27892;52.378;13.122;2023-07-31T06:08:06;20.70;74.90
42227;DHT22;27892;52.378;13.122;2023-07-31T06:10:50;20.70;74.80
42227;DHT22;27892;52.378;13.122;2023-07-31T06:13:35;20.70;75.40
42227;DHT22;27892;52.378;13.122;2023-07-31T06:16:20;20.80;76.10
42227;DHT22;27892;52.378;13.122;2023-07-31T06:19:05;20.80;75.50
42227;DHT22;27892;52.378;13.122;2023-07-31T06:21:51;20.90;75.80
42227;DHT22;27892;52.378;13.122;2023-07-31T06:24:35;21.00;75.50
42227;DHT22;27892;52.378;13.122;2023-07-31T06:27:19;21.20;76.40
42227;DHT22;27892;52.378;13.122;2023-07-31T06:30:03;21.30;75.80
42227;DHT22;27892;52.378;13.122;2023-07-31T06:32:48;21.40;74.70
42227;DHT22;27892;52.378;13.122;2023-07-31T06:35:32;21.30;73.20
42227;DHT22;27892;52.378;13.122;2023-07-31T06:38:18;21.20;74.00
42227;DHT22;27892;52.378;13.122;2023-07-31T06:41:03;21.20;73.80
42227;DHT22;27892;52.378;13.122;2023-07-31T06:43:48;21.20;74.20
42227;DHT22;27892;52.378;13.122;2023-07-31T06:46:32;21.20;73.50
42227;DHT22;27892;52.378;13.122;2023-07-31T06:49:16;21.20;74.00
42227;DHT22;27892;52.378;13.122;2023-07-31T06:52:00;21.10;73.60
42227;DHT22;27892;52.378;13.122;2023-07-31T06:55:00;21.10;73.90
42227;DHT22;27892;52.378;13.122;2023-07-31T06:57:45;21.10;73.70
42227;DHT22;27892;52.378;13.122;2023-07-31T07:00:29;21.00;73.80
42227;DHT22;27892;52.378;13.122;2023-07-31T07:03:13;21.00;74.00
42227;DHT22;27892;52.378;13.122;2023-07-31T07:05:58;20.90;74.20
42227;DHT22;27892;52.378;13.122;2023-07-31T07:08:42;20.80;74.70
42227;DHT22;27892;52.378;13.122;2023-07-31T07:11:27;20.90;75.40
42227;DHT22;27892;52.378;13.122;2023-07-31T07:14:11;20.90;76.00
42227;DHT22;27892;52.378;13.122;2023-07-31T07:16:55;20.90;75.90
42227;DHT22;27892;52.378;13.122;2023-07-31T07:19:42;21.00;76.10
42227;DHT22;27892;52.378;13.122;2023-07-31T07:22:26;20.90;75.40
42227;DHT22;27892;52.378;13.122;2023-07-31T07:25:11;20.70;75.30
42227;DHT22;27892;52.378;13.122;2023-07-31T07:27:36;20.70;76.20
42227;DHT22;27892;52.378;13.122;2023-07-31T07:30:02;20.60;76.40
42227;DHT22;27892;52.378;13.122;2023-07-31T07:32:29;20.60;76.40
42227;DHT22;27892;52.378;13.122;2023-07-31T07:34:55;20.50;76.80
42227;DHT22;27892;52.378;13.122;2023-07-31T07:37:21;20.60;78.70
42227;DHT22;27892;52.378;13.122;2023-07-31T07:39:47;20.70;79.00
42227;DHT22;27892;52.378;13.122;2023-07-31T07:42:12;20.70;77.60
42227;DHT22;27892;52.378;13.122;2023-07-31T07:44:38;20.60;78.30
42227;DHT22;27892;52.378;13.122;2023-07-31T07:47:04;20.60;79.50
42227;DHT22;27892;52.378;13.122;2023-07-31T07:49:32;20.80;80.40
42227;DHT22;27892;52.378;13.122;2023-07-31T07:51:58;20.90;79.80
42227;DHT22;27892;52.378;13.122;2023-07-31T07:54:23;21.00;80.00
42227;DHT22;27892;52.378;13.122;2023-07-31T07:56:49;21.00;77.90
42227;DHT22;27892;52.378;13.122;2023-07-31T07:59:15;20.80;78.00
42227;DHT22;27892;52.378;13.122;2023-07-31T08:01:40;20.70;80.00
42227;DHT22;27892;52.378;13.122;2023-07-31T08:04:06;20.90;80.40
42227;DHT22;27892;52.378;13.122;2023-07-31T08:06:32;21.00;79.80
42227;DHT22;27892;52.378;13.122;2023-07-31T08:08:57;21.20;80.20
42227;DHT22;27892;52.378;13.122;2023-07-31T08:11:23;21.30;79.70
42227;DHT22;27892;52.378;13.122;2023-07-31T08:13:49;21.40;80.00
42227;DHT22;27892;52.378;13.122;2023-07-31T08:16:15;21.60;79.50
42227;DHT22;27892;52.378;13.122;2023-07-31T08:18:41;21.80;80.20
42227;DHT22;27892;52.378;13.122;2023-07-31T08:21:08;22.00;78.90
42227;DHT22;27892;52.378;13.122;2023-07-31T08:23:34;22.00;78.30
42227;DHT22;27892;52.378;13.122;2023-07-31T08:25:59;22.10;77.70
42227;DHT22;27892;52.378;13.122;2023-07-31T08:28:25;22.20;78.40
42227;DHT22;27892;52.378;13.122;2023-07-31T08:30:51;22.20;77.70
42227;DHT22;27892;52.378;13.122;2023-07-31T08:33:16;22.20;75.70
42227;DHT22;27892;52.378;13.122;2023-07-31T08:35:44;22.00;74.90
42227;DHT22;27892;52.378;13.122;2023-07-31T08:38:11;22.00;76.10
42227;DHT22;27892;52.378;13.122;2023-07-31T08:40:37;21.90;76.40
42227;DHT22;27892;52.378;13.122;2023-07-31T08:43:06;22.10;78.80
42227;DHT22;27892;52.378;13.122;2023-07-31T08:45:32;22.20;77.50
42227;DHT22;27892;52.378;13.122;2023-07-31T08:47:59;22.30;77.50
42227;DHT22;27892;52.378;13.122;2023-07-31T08:50:25;22.30;76.00
42227;DHT22;27892;52.378;13.122;2023-07-31T08:52:51;22.30;76.60
42227;DHT22;27892;52.378;13.122;2023-07-31T08:55:18;22.30;74.00
42227;DHT22;27892;52.378;13.122;2023-07-31T08:57:51;22.30;74.90
42227;DHT22;27892;52.378;13.122;2023-07-31T09:00:18;22.40;74.10
42227;DHT22;27892;52.378;13.122;2023-07-31T09:02:52;22.40;74.00
42227;DHT22;27892;52.378;13.122;2023-07-31T09:05:18;22.50;74.00
42227;DHT22;27892;52.378;13.122;2023-07-31T09:07:47;22.40;73.10
42227;DHT22;27892;52.378;13.122;2023-07-31T09:10:13;22.20;72.80
42227;DHT22;27892;52.378;13.122;2023-07-31T09:12:39;22.10;73.00
42227;DHT22;27892;52.378;13.122;2023-07-31T09:15:05;22.10;74.50
42227;DHT22;27892;52.378;13.122;2023-07-31T09:17:32;22.10;74.20
42227;DHT22;27892;52.378;13.122;2023-07-31T09:20:19;22.10;75.00
42227;DHT22;27892;52.378;13.122;2023-07-31T09:22:46;22.20;74.70
42227;DHT22;27892;52.378;13.122;2023-07-31T09:25:24;22.20;73.50
42227;DHT22;27892;52.378;13.122;2023-07-31T09:27:54;22.10;74.00
42227;DHT22;27892;52.378;13.122;2023-07-31T09:30:21;21.90;74.40
42227;DHT22;27892;52.378;13.122;2023-07-31T09:32:48;22.00;75.10
42227;DHT22;27892;52.378;13.122;2023-07-31T09:37:39;22.20;74.50
42227;DHT22;27892;52.378;13.122;2023-07-31T09:40:05;22.20;73.80
42227;DHT22;27892;52.378;13.122;2023-07-31T09:42:31;22.30;75.00
42227;DHT22;27892;52.378;13.122;2023-07-31T09:45:07;22.40;74.00
42227;DHT22;27892;52.378;13.122;2023-07-31T09:47:34;22.30;73.80
42227;DHT22;27892;52.378;13.122;2023-07-31T09:49:59;22.30;73.80
42227;DHT22;27892;52.378;13.122;2023-07-31T09:52:26;22.30;73.70
42227;DHT22;27892;52.378;13.122;2023-07-31T09:54:52;22.20;73.90
42227;DHT22;27892;52.378;13.122;2023-07-31T09:57:21;22.10;74.10
42227;DHT22;27892;52.378;13.122;2023-07-31T09:59:47;22.10;74.90
42227;DHT22;27892;52.378;13.122;2023-07-31T10:02:17;22.10;75.50
42227;DHT22;27892;52.378;13.122;2023-07-31T10:04:48;22.10;75.60
42227;DHT22;27892;52.378;13.122;2023-07-31T10:07:17;22.10;76.30
42227;DHT22;27892;52.378;13.122;2023-07-31T10:09:43;22.10;76.10
42227;DHT22;27892;52.378;13.122;2023-07-31T10:12:10;22.20;77.60
42227;DHT22;27892;52.378;13.122;2023-07-31T10:14:38;22.40;75.80
42227;DHT22;27892;52.378;13.122;2023-07-31T10:17:05;22.40;76.20
42227;DHT22;27892;52.378;13.122;2023-07-31T10:19:32;22.70;76.70
42227;DHT22;27892;52.378;13.122;2023-07-31T10:21:59;22.80;75.90
42227;DHT22;27892;52.378;13.122;2023-07-31T10:24:25;23.00;76.10
42227;DHT22;27892;52.378;13.122;2023-07-31T10:26:53;23.30;76.00
42227;DHT22;27892;52.378;13.122;2023-07-31T10:29:19;23.60;74.60
42227;DHT22;27892;52.378;13.122;2023-07-31T10:31:46;24.10;73.30
42227;DHT22;27892;52.378;13.122;2023-07-31T10:34:13;24.40;72.00
42227;DHT22;27892;52.378;13.122;2023-07-31T10:36:39;24.80;71.80
42227;DHT22;27892;52.378;13.122;2023-07-31T10:39:35;25.20;69.00
42227;DHT22;27892;52.378;13.122;2023-07-31T10:42:10;25.20;67.60
42227;DHT22;27892;52.378;13.122;2023-07-31T10:44:36;25.30;65.90
42227;DHT22;27892;52.378;13.122;2023-07-31T10:47:02;25.80;65.10
42227;DHT22;27892;52.378;13.122;2023-07-31T10:49:29;26.30;65.00
42227;DHT22;27892;52.378;13.122;2023-07-31T10:51:57;26.60;63.90
42227;DHT22;27892;52.378;13.122;2023-07-31T10:54:22;26.70;60.70
42227;DHT22;27892;52.378;13.122;2023-07-31T10:56:51;26.70;59.50
42227;DHT22;27892;52.378;13.122;2023-07-31T10:59:18;26.80;59.50
42227;DHT22;27892;52.378;13.122;2023-07-31T11:01:53;26.60;58.80
42227;DHT22;27892;52.378;13.122;2023-07-31T11:04:26;26.50;60.60
42227;DHT22;27892;52.378;13.122;2023-07-31T11:07:00;26.60;60.40
42227;DHT22;27892;52.378;13.122;2023-07-31T11:09:31;26.70;60.00
42227;DHT22;27892;52.378;13.122;2023-07-31T11:11:58;26.80;59.80
42227;DHT22;27892;52.378;13.122;2023-07-31T11:14:24;26.60;57.70
42227;DHT22;27892;52.378;13.122;2023-07-31T11:16:50;26.60;59.60
42227;DHT22;27892;52.378;13.122;2023-07-31T11:19:26;26.70;59.50
42227;DHT22;27892;52.378;13.122;2023-07-31T11:21:52;26.80;59.10
42227;DHT22;27892;52.378;13.122;2023-07-31T11:24:19;26.90;58.50
42227;DHT22;27892;52.378;13.122;2023-07-31T11:26:50;26.90;58.50
42227;DHT22;27892;52.378;13.122;2023-07-31T11:29:16;26.90;56.80
42227;DHT22;27892;52.378;13.122;2023-07-31T11:31:42;26.70;56.50
42227;DHT22;27892;52.378;13.122;2023-07-31T11:34:08;26.50;57.20
42227;DHT22;27892;52.378;13.122;2023-07-31T11:36:34;26.40;56.60
42227;DHT22;27892;52.378;13.122;2023-07-31T11:39:09;26.10;56.10
42227;DHT22;27892;52.378;13.122;2023-07-31T11:41:35;25.80;56.90
42227;DHT22;27892;52.378;13.122;2023-07-31T11:44:01;25.60;58.30
42227;DHT22;27892;52.378;13.122;2023-07-31T11:46:29;25.50;58.10
42227;DHT22;27892;52.378;13.122;2023-07-31T11:48:59;25.40;57.60
42227;DHT22;27892;52.378;13.122;2023-07-31T11:51:25;25.40;58.70
42227;DHT22;27892;52.378;13.122;2023-07-31T11:53:57;25.40;58.70
42227;DHT22;27892;52.378;13.122;2023-07-31T11:56:23;25.60;57.80
42227;DHT22;27892;52.378;13.122;2023-07-31T11:58:53;25.60;58.20
42227;DHT22;27892;52.378;13.122;2023-07-31T12:01:21;25.70;58.00
42227;DHT22;27892;52.378;13.122;2023-07-31T12:03:47;25.70;57.90
42227;DHT22;27892;52.378;13.122;2023-07-31T12:06:13;25.60;57.40
42227;DHT22;27892;52.378;13.122;2023-07-31T12:08:39;25.60;58.10
42227;DHT22;27892;52.378;13.122;2023-07-31T12:11:06;25.50;57.10
42227;DHT22;27892;52.378;13.122;2023-07-31T12:13:33;25.40;57.30
42227;DHT22;27892;52.378;13.122;2023-07-31T12:16:00;25.40;59.60
42227;DHT22;27892;52.378;13.122;2023-07-31T12:18:33;25.30;59.00
42227;DHT22;27892;52.378;13.122;2023-07-31T12:21:03;25.30;58.50
42227;DHT22;27892;52.378;13.122;2023-07-31T12:23:31;25.30;58.00
42227;DHT22;27892;52.378;13.122;2023-07-31T12:26:05;25.30;57.50
42227;DHT22;27892;52.378;13.122;2023-07-31T12:28:42;25.30;57.90
42227;DHT22;27892;52.378;13.122;2023-07-31T12:31:20;25.40;57.60
42227;DHT22;27892;52.378;13.122;2023-07-31T12:33:47;25.40;57.00
42227;DHT22;27892;52.378;13.122;2023-07-31T12:36:18;25.50;57.80
42227;DHT22;27892;52.378;13.122;2023-07-31T12:38:44;25.60;56.50
42227;DHT22;27892;52.378;13.122;2023-07-31T12:41:11;25.80;56.40
42227;DHT22;27892;52.378;13.122;2023-07-31T12:43:39;25.80;55.50
42227;DHT22;27892;52.378;13.122;2023-07-31T12:46:05;25.90;56.00
42227;DHT22;27892;52.378;13.122;2023-07-31T12:48:31;26.00;55.00
42227;DHT22;27892;52.378;13.122;2023-07-31T12:50:57;26.10;55.30
42227;DHT22;27892;52.378;13.122;2023-07-31T12:53:23;26.10;54.80
42227;DHT22;27892;52.378;13.122;2023-07-31T12:55:49;26.00;54.70
42227;DHT22;27892;52.378;13.122;2023-07-31T12:58:15;26.00;54.10
42227;DHT22;27892;52.378;13.122;2023-07-31T13:00:41;25.90;54.90
42227;DHT22;27892;52.378;13.122;2023-07-31T13:03:07;25.80;54.90
42227;DHT22;27892;52.378;13.122;2023-07-31T13:05:32;25.70;55.30
42227;DHT22;27892;52.378;13.122;2023-07-31T13:07:58;25.50;55.10
42227;DHT22;27892;52.378;13.122;2023-07-31T13:10:24;25.50;55.10
42227;DHT22;27892;52.378;13.122;2023-07-31T13:12:49;25.60;55.40
42227;DHT22;27892;52.378;13.122;2023-07-31T13:15:15;25.60;56.10
42227;DHT22;27892;52.378;13.122;2023-07-31T13:17:41;25.80;55.70
42227;DHT22;27892;52.378;13.122;2023-07-31T13:20:07;26.00;55.40
42227;DHT22;27892;52.378;13.122;2023-07-31T13:22:33;26.10;55.50
42227;DHT22;27892;52.378;13.122;2023-07-31T13:24:59;26.20;54.80
42227;DHT22;27892;52.378;13.122;2023-07-31T13:27:25;26.40;54.90
42227;DHT22;27892;52.378;13.122;2023-07-31T13:29:51;26.50;53.60
42227;DHT22;27892;52.378;13.122;2023-07-31T13:32:18;26.60;54.50
42227;DHT22;27892;52.378;13.122;2023-07-31T13:34:45;26.80;54.00
42227;DHT22;27892;52.378;13.122;2023-07-31T13:37:11;26.90;54.40
42227;DHT22;27892;52.378;13.122;2023-07-31T13:39:36;26.70;53.10
42227;DHT22;27892;52.378;13.122;2023-07-31T13:42:06;26.60;54.00
42227;DHT22;27892;52.378;13.122;2023-07-31T13:44:34;26.60;53.50
42227;DHT22;27892;52.378;13.122;2023-07-31T13:47:00;26.50;54.20
42227;DHT22;27892;52.378;13.122;2023-07-31T13:49:26;26.50;54.00
42227;DHT22;27892;52.378;13.122;2023-07-31T13:51:52;26.50;54.10
42227;DHT22;27892;52.378;13.122;2023-07-31T13:54:18;26.70;53.40
42227;DHT22;27892;52.378;13.122;2023-07-31T13:56:44;26.70;53.30
42227;DHT22;27892;52.378;13.122;2023-07-31T13:59:10;26.70;53.70
42227;DHT22;27892;52.378;13.122;2023-07-31T14:01:36;26.60;52.60
42227;DHT22;27892;52.378;13.122;2023-07-31T14:04:01;26.40;53.20
42227;DHT22;27892;52.378;13.122;2023-07-31T14:06:27;26.30;54.00
42227;DHT22;27892;52.378;13.122;2023-07-31T14:08:53;26.10;54.20
42227;DHT22;27892;52.378;13.122;2023-07-31T14:11:19;26.20;54.80
42227;DHT22;27892;52.378;13.122;2023-07-31T14:13:44;26.20;54.20
42227;DHT22;27892;52.378;13.122;2023-07-31T14:16:10;26.20;53.20
42227;DHT22;27892;52.378;13.122;2023-07-31T14:18:36;26.20;53.20
42227;DHT22;27892;52.378;13.122;2023-07-31T14:21:01;26.20;52.80
42227;DHT22;27892;52.378;13.122;2023-07-31T14:23:27;26.20;52.40
42227;DHT22;27892;52.378;13.122;2023-07-31T14:25:53;26.20;52.70
42227;DHT22;27892;52.378;13.122;2023-07-31T14:28:18;26.20;53.20
42227;DHT22;27892;52.378;13.122;2023-07-31T14:30:44;26.30;53.30
42227;DHT22;27892;52.378;13.122;2023-07-31T14:33:10;26.20;54.20
42227;DHT22;27892;52.378;13.122;2023-07-31T14:35:35;26.10;52.90
42227;DHT22;27892;52.378;13.122;2023-07-31T14:38:01;25.90;52.50
42227;DHT22;27892;52.378;13.122;2023-07-31T14:40:27;25.80;53.10
42227;DHT22;27892;52.378;13.122;2023-07-31T14:42:53;25.80;53.10
42227;DHT22;27892;52.378;13.122;2023-07-31T14:45:18;25.80;53.40
42227;DHT22;27892;52.378;13.122;2023-07-31T14:47:44;25.80;53.50
42227;DHT22;27892;52.378;13.122;2023-07-31T14:50:10;25.80;53.50
42227;DHT22;27892;52.378;13.122;2023-07-31T14:52:36;25.60;53.40
42227;DHT22;27892;52.378;13.122;2023-07-31T14:55:01;25.60;53.60
42227;DHT22;27892;52.378;13.122;2023-07-31T14:57:27;25.60;53.80
42227;DHT22;27892;52.378;13.122;2023-07-31T14:59:53;25.50;53.90
42227;DHT22;27892;52.378;13.122;2023-07-31T15:02:18;25.40;54.10
42227;DHT22;27892;52.378;13.122;2023-07-31T15:04:44;25.40;54.10
42227;DHT22;27892;52.378;13.122;2023-07-31T15:07:10;25.40;53.70
42227;DHT22;27892;52.378;13.122;2023-07-31T15:09:35;25.40;54.40
42227;DHT22;27892;52.378;13.122;2023-07-31T15:12:01;25.40;55.20
42227;DHT22;27892;52.378;13.122;2023-07-31T15:14:27;25.60;55.20
42227;DHT22;27892;52.378;13.122;2023-07-31T15:16:56;25.50;54.70
42227;DHT22;27892;52.378;13.122;2023-07-31T15:19:22;25.50;55.00
42227;DHT22;27892;52.378;13.122;2023-07-31T15:21:49;25.50;55.00
42227;DHT22;27892;52.378;13.122;2023-07-31T15:24:15;25.60;55.60
42227;DHT22;27892;52.378;13.122;2023-07-31T15:26:40;25.70;55.60
42227;DHT22;27892;52.378;13.122;2023-07-31T15:29:08;25.90;55.70
42227;DHT22;27892;52.378;13.122;2023-07-31T15:31:35;26.00;55.10
42227;DHT22;27892;52.378;13.122;2023-07-31T15:34:01;26.10;55.30
42227;DHT22;27892;52.378;13.122;2023-07-31T15:36:26;26.20;54.70
42227;DHT22;27892;52.378;13.122;2023-07-31T15:38:52;26.20;54.20
42227;DHT22;27892;52.378;13.122;2023-07-31T15:41:18;26.20;54.80
42227;DHT22;27892;52.378;13.122;2023-07-31T15:43:44;26.20;54.20
42227;DHT22;27892;52.378;13.122;2023-07-31T15:46:10;26.20;54.30
42227;DHT22;27892;52.378;13.122;2023-07-31T15:48:36;26.20;53.90
42227;DHT22;27892;52.378;13.122;2023-07-31T15:51:02;26.00;53.60
42227;DHT22;27892;52.378;13.122;2023-07-31T15:53:29;25.90;53.20